Time;durP1;ratioP1;P1;durP2;ratioP2;P2;SDS_P1;SDS_P2;PMS_P1;PMS_P2;Temp;Humidity;BMP_temperature;BMP_pressure;BME280_temperature;BME280_humidity;BME280_pressure;Samples;Min_cycle;Max_cycle;Signal;HPM_P1;HPM_P2
2023/12/18 00:00:29;;;;;;;3.92;2.00;;;;;;;7.90;100.00;102366.53;5031400;28;20049;-82
2023/12/18 00:02:55;;;;;;;3.65;2.72;;;;;;;7.87;100.00;102374.25;5050632;28;20509;-82
2023/12/18 00:05:22;;;;;;;2.72;1.98;;;;;;;7.86;100.00;102379.44;5037756;28;20041;-82
2023/12/18 00:07:48;;;;;;;3.97;2.05;;;;;;;7.76;100.00;102373.06;5033754;28;20904;-82
2023/12/18 00:10:15;;;;;;;5.25;2.42;;;;;;;7.74;100.00;102372.13;5041594;28;20053;-84
2023/12/18 00:12:44;;;;;;;2.25;2.05;;;;;;;7.72;100.00;102376.44;5040476;28;20044;-83
2023/12/18 00:15:12;;;;;;;5.78;2.50;;;;;;;7.69;100.00;102378.91;5041372;28;20469;-83
2023/12/18 00:17:41;;;;;;;5.65;2.50;;;;;;;7.65;100.00;102377.94;5053638;28;20041;-82
2023/12/18 00:20:12;;;;;;;3.75;2.10;;;;;;;7.58;100.00;102378.59;5043804;28;20091;-82
2023/12/18 00:22:38;;;;;;;2.90;2.17;;;;;;;7.52;100.00;102379.31;5039211;28;20069;-84
2023/12/18 00:25:05;;;;;;;5.68;2.55;;;;;;;7.46;100.00;102368.69;5039975;28;20049;-83
2023/12/18 00:27:32;;;;;;;4.35;2.20;;;;;;;7.37;100.00;102361.44;5034991;28;20042;-84
2023/12/18 00:29:59;;;;;;;8.75;3.38;;;;;;;7.28;100.00;102368.97;5041345;28;20103;-81
2023/12/18 00:32:25;;;;;;;5.47;2.92;;;;;;;7.20;100.00;102373.94;5049725;28;20052;-81
2023/12/18 00:34:52;;;;;;;3.58;2.45;;;;;;;7.13;100.00;102377.16;5041307;28;20059;-82
2023/12/18 00:37:19;;;;;;;5.93;2.53;;;;;;;7.06;100.00;102381.28;5045735;28;20077;-83
2023/12/18 00:39:46;;;;;;;7.85;3.20;;;;;;;6.99;100.00;102371.50;5030498;28;20113;-83
2023/12/18 00:42:12;;;;;;;5.85;3.28;;;;;;;6.93;100.00;102379.97;5049599;28;20057;-83
2023/12/18 00:44:39;;;;;;;8.45;3.78;;;;;;;6.89;100.00;102390.25;5035458;28;20049;-84
2023/12/18 00:47:06;;;;;;;7.65;3.30;;;;;;;6.83;100.00;102380.53;5048092;28;20540;-82
2023/12/18 00:49:35;;;;;;;9.00;4.18;;;;;;;6.77;100.00;102375.97;5048555;28;20052;-84
2023/12/18 00:52:09;;;;;;;7.13;3.97;;;;;;;6.72;100.00;102376.66;5061006;28;20116;-82
2023/12/18 00:54:38;;;;;;;8.52;4.40;;;;;;;6.69;100.00;102385.25;5053710;28;20045;-82
2023/12/18 00:57:05;;;;;;;6.82;4.68;;;;;;;6.65;100.00;102382.47;5033836;28;20072;-84
2023/12/18 00:59:32;;;;;;;8.98;3.85;;;;;;;6.60;100.00;102377.13;5042274;28;20025;-81
2023/12/18 01:02:01;;;;;;;8.20;4.43;;;;;;;6.62;100.00;102373.72;5042069;28;20052;-83
2023/12/18 01:04:31;;;;;;;11.35;5.22;;;;;;;6.65;100.00;102378.16;5058999;28;20049;-80
2023/12/18 01:07:01;;;;;;;10.40;4.72;;;;;;;6.67;100.00;102381.69;5041998;28;20072;-82
2023/12/18 01:09:28;;;;;;;11.60;4.60;;;;;;;6.77;100.00;102390.72;5055751;28;20042;-82
2023/12/18 01:11:54;;;;;;;14.13;6.10;;;;;;;6.82;100.00;102389.16;5045110;28;20049;-84
2023/12/18 01:14:21;;;;;;;12.73;5.60;;;;;;;6.89;100.00;102391.13;5040893;28;20100;-81
2023/12/18 01:16:48;;;;;;;10.57;5.93;;;;;;;6.97;100.00;102386.19;5054136;28;20069;-82
2023/12/18 01:19:14;;;;;;;10.77;5.95;;;;;;;6.97;100.00;102383.56;5037122;28;20045;-83
2023/12/18 01:21:45;;;;;;;8.32;5.20;;;;;;;7.02;100.00;102389.81;5060944;28;20048;-83
2023/12/18 01:24:14;;;;;;;10.90;5.38;;;;;;;7.06;100.00;102389.09;5056412;28;20498;-83
2023/12/18 01:26:43;;;;;;;8.13;5.47;;;;;;;7.10;100.00;102387.47;5051935;28;20441;-82
2023/12/18 01:29:15;;;;;;;14.30;6.13;;;;;;;7.08;100.00;102386.56;5038578;28;20037;-82
2023/12/18 01:31:42;;;;;;;14.07;6.30;;;;;;;7.04;100.00;102382.06;5044236;28;20124;-82
2023/12/18 01:34:09;;;;;;;12.48;6.38;;;;;;;7.05;100.00;102384.75;5059940;28;20116;-81
2023/12/18 01:36:38;;;;;;;13.05;6.55;;;;;;;7.04;100.00;102384.66;5030917;28;20053;-83
2023/12/18 01:39:05;;;;;;;11.15;6.05;;;;;;;7.08;100.00;102382.22;5057226;28;20033;-83
2023/12/18 01:41:32;;;;;;;14.05;7.80;;;;;;;6.99;100.00;102381.91;5058009;28;20042;-83
2023/12/18 01:44:01;;;;;;;11.77;6.75;;;;;;;7.01;100.00;102385.44;5037589;28;20060;-84
2023/12/18 01:46:28;;;;;;;16.75;8.20;;;;;;;7.01;100.00;102387.16;5043259;28;20144;-83
2023/12/18 01:49:00;;;;;;;13.65;6.97;;;;;;;6.99;100.00;102383.63;5056092;28;20056;-82
2023/12/18 01:51:27;;;;;;;11.95;7.63;;;;;;;6.95;100.00;102377.44;5055104;28;20141;-81
2023/12/18 01:53:56;;;;;;;20.45;9.10;;;;;;;6.88;100.00;102380.66;5032522;28;20537;-83
2023/12/18 01:56:26;;;;;;;16.13;8.00;;;;;;;6.86;100.00;102387.56;5052451;28;20054;-82
2023/12/18 01:58:55;;;;;;;13.30;7.65;;;;;;;6.80;100.00;102388.19;5035203;28;20041;-83
2023/12/18 02:01:25;;;;;;;15.80;7.97;;;;;;;6.79;100.00;102395.13;5049170;28;20041;-82
2023/12/18 02:03:55;;;;;;;14.75;8.65;;;;;;;6.78;100.00;102387.28;5051846;28;20060;-83
2023/12/18 02:06:25;;;;;;;15.50;9.15;;;;;;;6.73;100.00;102371.50;5054747;28;20037;-83
2023/12/18 02:08:52;;;;;;;17.80;8.52;;;;;;;6.74;100.00;102369.75;5046827;28;20532;-86
2023/12/18 02:11:19;;;;;;;13.18;8.10;;;;;;;6.65;100.00;102367.75;5048688;28;20367;-81
2023/12/18 02:13:47;;;;;;;12.75;7.82;;;;;;;6.61;100.00;102358.06;5035082;28;20528;-83
2023/12/18 02:16:17;;;;;;;12.77;7.85;;;;;;;6.57;100.00;102356.16;5033631;28;20069;-84
2023/12/18 02:18:47;;;;;;;14.75;8.23;;;;;;;6.50;100.00;102349.00;5046976;28;20041;-82
2023/12/18 02:21:29;;;;;;;15.75;9.40;;;;;;;6.48;100.00;102343.75;5037442;28;20088;-82
2023/12/18 02:23:58;;;;;;;19.17;9.80;;;;;;;6.44;100.00;102354.84;5056741;28;20049;-83
2023/12/18 02:26:25;;;;;;;13.57;8.10;;;;;;;6.37;100.00;102339.88;5053881;28;20060;-82
2023/12/18 02:28:52;;;;;;;11.75;9.05;;;;;;;6.33;100.00;102353.59;5039217;28;20052;-82
2023/12/18 02:31:19;;;;;;;15.30;8.68;;;;;;;6.31;100.00;102355.25;5055472;28;20037;-85
2023/12/18 02:33:48;;;;;;;18.10;8.73;;;;;;;6.30;100.00;102354.38;5039566;28;20057;-81
2023/12/18 02:36:16;;;;;;;15.32;9.10;;;;;;;6.25;100.00;102366.31;5037500;28;20088;-83
2023/12/18 02:38:43;;;;;;;20.00;11.40;;;;;;;6.24;100.00;102359.34;5042290;28;20071;-82
2023/12/18 02:41:10;;;;;;;16.23;9.80;;;;;;;6.24;100.00;102369.75;5032189;28;20046;-82
2023/12/18 02:43:37;;;;;;;18.10;10.40;;;;;;;6.24;100.00;102362.81;5035099;28;20049;-83
2023/12/18 02:46:04;;;;;;;13.30;9.75;;;;;;;6.26;100.00;102358.56;5035352;28;20041;-82
2023/12/18 02:48:30;;;;;;;16.02;9.55;;;;;;;6.25;100.00;102356.78;5047370;28;20049;-80
2023/12/18 02:50:57;;;;;;;15.50;10.10;;;;;;;6.26;100.00;102357.69;5046559;28;20045;-85
2023/12/18 02:53:24;;;;;;;20.05;10.27;;;;;;;6.29;100.00;102345.66;5055865;28;20064;-82
2023/12/18 02:55:51;;;;;;;15.63;9.43;;;;;;;6.34;100.00;102350.19;5049938;28;20063;-82
2023/12/18 02:58:22;;;;;;;14.85;9.70;;;;;;;6.29;100.00;102350.00;5030342;28;20046;-84
2023/12/18 03:00:55;;;;;;;13.10;9.15;;;;;;;6.37;100.00;102345.94;5037003;28;20048;-82
2023/12/18 03:03:23;;;;;;;19.55;9.55;;;;;;;6.35;100.00;102338.91;5051738;28;20065;-81
2023/12/18 03:05:53;;;;;;;19.08;9.55;;;;;;;6.29;100.00;102343.06;5031505;28;20055;-83
2023/12/18 03:08:22;;;;;;;17.15;10.02;;;;;;;6.28;100.00;102340.41;5029784;28;20064;-81
2023/12/18 03:10:48;;;;;;;16.20;9.73;;;;;;;6.25;100.00;102351.59;5033603;28;20060;-83
2023/12/18 03:13:15;;;;;;;15.15;10.52;;;;;;;6.21;100.00;102341.91;5057629;28;20088;-84
2023/12/18 03:15:41;;;;;;;13.45;9.07;;;;;;;6.20;100.00;102345.34;5040545;28;20099;-82
2023/12/18 03:18:08;;;;;;;18.00;11.27;;;;;;;6.24;100.00;102343.75;5036764;28;20404;-83
2023/12/18 03:20:35;;;;;;;14.73;9.20;;;;;;;6.22;100.00;102343.69;5030654;28;20056;-82
2023/12/18 03:23:02;;;;;;;14.07;9.95;;;;;;;6.25;100.00;102342.91;5033967;28;20072;-84
2023/12/18 03:25:30;;;;;;;19.30;9.48;;;;;;;6.31;100.00;102345.75;5039338;28;20049;-82
2023/12/18 03:27:57;;;;;;;13.98;10.27;;;;;;;6.30;100.00;102351.78;5049138;28;20037;-82
2023/12/18 03:30:24;;;;;;;21.08;10.70;;;;;;;6.29;100.00;102342.19;5024093;28;20048;-82
2023/12/18 03:32:53;;;;;;;15.57;9.85;;;;;;;6.24;100.00;102335.94;5037179;28;20041;-83
2023/12/18 03:35:21;;;;;;;15.98;9.80;;;;;;;6.21;100.00;102348.84;5031824;28;20302;-82
2023/12/18 03:37:47;;;;;;;17.40;9.85;;;;;;;6.20;100.00;102337.53;5026069;28;20041;-83
2023/12/18 03:40:14;;;;;;;18.13;9.55;;;;;;;6.26;100.00;102336.91;5025797;28;20523;-82
2023/12/18 03:42:41;;;;;;;17.10;9.95;;;;;;;6.21;100.00;102328.91;5047055;28;20045;-84
2023/12/18 03:45:09;;;;;;;15.98;9.77;;;;;;;6.18;100.00;102325.31;5051613;28;20075;-83
2023/12/18 03:47:36;;;;;;;17.25;10.05;;;;;;;6.12;100.00;102320.78;5039386;28;20087;-84
2023/12/18 03:50:02;;;;;;;15.18;9.57;;;;;;;6.19;100.00;102316.69;5036252;28;20052;-83
2023/12/18 03:52:29;;;;;;;15.60;9.10;;;;;;;6.18;100.00;102322.72;5053551;28;20111;-83
2023/12/18 03:54:56;;;;;;;11.43;8.85;;;;;;;6.23;100.00;102321.16;5038429;28;20117;-82
2023/12/18 03:57:24;;;;;;;19.52;11.18;;;;;;;6.21;100.00;102320.25;5043158;28;20060;-82
2023/12/18 03:59:57;;;;;;;18.25;9.95;;;;;;;6.20;100.00;102318.47;5057782;28;20127;-84
2023/12/18 04:02:28;;;;;;;16.45;10.35;;;;;;;6.06;100.00;102317.94;5043050;28;20111;-82
2023/12/18 04:04:56;;;;;;;14.27;10.32;;;;;;;6.03;100.00;102316.13;5045003;28;20041;-84
2023/12/18 04:07:22;;;;;;;14.32;10.20;;;;;;;5.96;100.00;102311.50;5052303;28;20045;-81
2023/12/18 04:09:54;;;;;;;13.77;9.80;;;;;;;5.97;100.00;102310.66;5044537;28;20060;-83
2023/12/18 04:12:21;;;;;;;18.05;9.18;;;;;;;5.99;100.00;102311.66;5041347;28;20083;-83
2023/12/18 04:14:48;;;;;;;17.70;10.20;;;;;;;5.99;100.00;102302.97;5033758;28;20300;-84
2023/12/18 04:17:14;;;;;;;19.55;10.02;;;;;;;6.02;100.00;102303.06;5051258;28;20813;-82
2023/12/18 04:19:41;;;;;;;11.45;9.43;;;;;;;6.03;100.00;102307.44;5047473;28;20099;-82
2023/12/18 04:22:07;;;;;;;14.27;9.80;;;;;;;6.01;100.00;102307.41;5055195;28;20882;-82
2023/12/18 04:24:34;;;;;;;18.35;11.75;;;;;;;5.98;100.00;102299.47;5057156;28;20902;-83
2023/12/18 04:27:00;;;;;;;16.20;9.32;;;;;;;6.05;100.00;102316.19;5060546;28;20506;-83
2023/12/18 04:29:29;;;;;;;14.63;9.73;;;;;;;5.99;100.00;102322.03;5038728;28;20069;-83
2023/12/18 04:31:56;;;;;;;17.90;10.23;;;;;;;5.91;100.00;102310.47;5038978;28;20123;-82
2023/12/18 04:34:22;;;;;;;13.73;9.50;;;;;;;5.85;100.00;102318.88;5032800;28;20071;-83
2023/12/18 04:36:49;;;;;;;19.38;10.02;;;;;;;5.86;100.00;102312.88;5048798;28;20104;-82
2023/12/18 04:39:14;;;;;;;15.82;9.75;;;;;;;5.84;100.00;102309.34;5050041;28;20049;-84
2023/12/18 04:41:41;;;;;;;16.75;9.00;;;;;;;5.87;100.00;102317.25;5031584;28;20053;-84
2023/12/18 04:44:07;;;;;;;20.88;11.23;;;;;;;5.92;100.00;102310.50;5048187;28;20048;-82
2023/12/18 04:46:38;;;;;;;21.67;10.32;;;;;;;5.89;100.00;102309.50;5049835;28;20049;-83
2023/12/18 04:49:09;;;;;;;19.00;9.52;;;;;;;5.88;100.00;102306.03;5045054;28;20045;-81
2023/12/18 04:51:36;;;;;;;15.00;9.55;;;;;;;5.83;100.00;102312.78;5041576;28;20048;-83
2023/12/18 04:54:02;;;;;;;19.20;10.20;;;;;;;5.83;100.00;102317.97;5032638;28;20526;-83
2023/12/18 04:56:29;;;;;;;22.02;10.52;;;;;;;5.87;100.00;102330.25;5050214;28;20041;-83
2023/12/18 04:58:55;;;;;;;21.00;10.43;;;;;;;5.87;100.00;102321.56;5034293;28;20116;-84
2023/12/18 05:01:27;;;;;;;17.83;9.55;;;;;;;5.79;100.00;102316.97;5031500;28;20056;-83
2023/12/18 05:03:54;;;;;;;19.40;11.05;;;;;;;5.81;100.00;102335.19;5034835;28;20140;-81
2023/12/18 05:06:25;;;;;;;21.27;10.05;;;;;;;5.76;100.00;102331.53;5038724;28;20033;-83
2023/12/18 05:08:52;;;;;;;15.25;9.60;;;;;;;5.81;100.00;102324.81;5051664;28;20124;-82
2023/12/18 05:11:25;;;;;;;18.75;9.80;;;;;;;5.77;100.00;102335.91;5056429;28;20075;-82
2023/12/18 05:13:52;;;;;;;14.95;10.25;;;;;;;5.73;100.00;102321.91;5039363;28;20049;-82
2023/12/18 05:16:19;;;;;;;18.23;8.77;;;;;;;5.84;100.00;102324.03;5045927;28;20061;-83
2023/12/18 05:18:46;;;;;;;17.33;8.93;;;;;;;5.84;100.00;102318.84;5031344;28;20578;-81
2023/12/18 05:21:14;;;;;;;17.13;10.23;;;;;;;5.82;100.00;102321.38;5034600;28;20041;-81
2023/12/18 05:23:41;;;;;;;14.48;9.05;;;;;;;5.80;100.00;102313.53;5047722;28;20070;-83
2023/12/18 05:26:10;;;;;;;16.67;8.95;;;;;;;5.86;100.00;102315.47;5044462;28;20076;-81
2023/12/18 05:28:40;;;;;;;15.88;8.60;;;;;;;5.89;100.00;102317.31;5040227;28;20113;-83
2023/12/18 05:31:14;;;;;;;16.67;9.77;;;;;;;5.82;100.00;102311.00;5044378;28;20586;-82
2023/12/18 05:33:41;;;;;;;16.95;9.13;;;;;;;5.87;100.00;102308.56;5028107;28;20387;-83
2023/12/18 05:36:08;;;;;;;13.80;9.43;;;;;;;5.84;100.00;102296.34;5042213;28;20128;-84
2023/12/18 05:38:37;;;;;;;16.75;8.57;;;;;;;5.88;100.00;102312.94;5027717;28;20041;-84
2023/12/18 05:41:04;;;;;;;14.63;9.13;;;;;;;5.89;100.00;102309.50;5025078;28;20107;-82
2023/12/18 05:43:31;;;;;;;14.32;9.35;;;;;;;5.90;100.00;102316.47;5036752;28;20108;-82
2023/12/18 05:45:57;;;;;;;15.00;8.82;;;;;;;5.92;100.00;102310.50;5035842;28;20082;-82
2023/12/18 05:48:24;;;;;;;15.32;8.13;;;;;;;5.95;100.00;102315.81;5022070;28;20502;-84
2023/12/18 05:50:50;;;;;;;16.73;9.07;;;;;;;5.90;100.00;102319.06;5042076;28;20137;-83
2023/12/18 05:53:17;;;;;;;9.88;7.00;;;;;;;5.97;100.00;102310.66;5034629;28;20056;-83
2023/12/18 05:55:44;;;;;;;13.00;7.88;;;;;;;6.00;100.00;102312.53;5048967;28;20057;-82
2023/12/18 05:58:10;;;;;;;14.07;7.95;;;;;;;5.95;100.00;102315.81;5040214;28;20038;-81
2023/12/18 06:00:38;;;;;;;14.63;9.10;;;;;;;5.97;100.00;102316.75;5035652;28;20465;-81
2023/12/18 06:03:05;;;;;;;12.73;7.60;;;;;;;5.99;100.00;102322.03;5039322;28;20069;-83
2023/12/18 06:05:34;;;;;;;15.77;8.73;;;;;;;5.94;100.00;102311.47;5037461;28;20049;-82
2023/12/18 06:08:01;;;;;;;15.00;9.63;;;;;;;6.01;100.00;102320.41;5026243;28;20135;-83
2023/12/18 06:10:27;;;;;;;14.98;8.80;;;;;;;5.95;100.00;102315.81;5042501;28;20057;-82
2023/12/18 06:12:54;;;;;;;14.65;8.10;;;;;;;5.96;100.00;102327.13;5045512;28;20057;-83
2023/12/18 06:15:21;;;;;;;15.43;8.52;;;;;;;5.88;100.00;102326.81;5048559;28;20037;-84
2023/12/18 06:17:48;;;;;;;10.27;7.28;;;;;;;5.97;100.00;102340.16;5028025;28;20045;-85
2023/12/18 06:20:14;;;;;;;12.68;7.97;;;;;;;6.00;100.00;102343.72;5042695;28;20132;-84
2023/12/18 06:22:41;;;;;;;13.27;9.05;;;;;;;6.02;100.00;102342.94;5031811;28;20120;-82
2023/12/18 06:25:08;;;;;;;17.40;8.30;;;;;;;5.99;100.00;102347.16;5044582;28;20041;-83
2023/12/18 06:27:34;;;;;;;16.15;9.35;;;;;;;5.95;100.00;102346.13;5046052;28;20079;-84
2023/12/18 06:30:01;;;;;;;17.27;8.80;;;;;;;5.96;100.00;102346.19;5030267;28;20037;-83
2023/12/18 06:32:31;;;;;;;14.45;8.10;;;;;;;5.95;100.00;102339.19;5028868;28;20048;-83
2023/12/18 06:34:57;;;;;;;21.73;9.43;;;;;;;5.92;100.00;102349.50;5029783;28;20050;-83
2023/12/18 06:37:24;;;;;;;20.02;10.50;;;;;;;5.88;100.00;102350.22;5038891;28;20041;-83
2023/12/18 06:39:51;;;;;;;13.27;8.05;;;;;;;5.90;100.00;102352.88;5013796;28;20108;-84
2023/12/18 06:42:17;;;;;;;15.75;8.93;;;;;;;6.00;100.00;102343.72;5035660;28;20037;-83
2023/12/18 06:44:46;;;;;;;18.20;8.02;;;;;;;5.95;100.00;102338.34;5048554;28;20060;-82
2023/12/18 06:47:13;;;;;;;12.40;8.70;;;;;;;5.96;100.00;102340.09;5026642;28;20029;-83
2023/12/18 06:49:38;;;;;;;20.23;9.32;;;;;;;5.92;100.00;102343.44;5028771;28;20117;-82
2023/12/18 06:52:06;;;;;;;13.48;8.70;;;;;;;6.01;100.00;102338.59;5046976;28;20079;-82
2023/12/18 06:54:35;;;;;;;15.13;9.07;;;;;;;6.01;100.00;102348.09;5032567;28;20041;-82
2023/12/18 06:57:02;;;;;;;17.10;9.13;;;;;;;5.98;100.00;102341.06;5039274;28;20054;-81
2023/12/18 06:59:29;;;;;;;17.88;9.52;;;;;;;5.97;100.00;102342.75;5025931;28;20707;-81
2023/12/18 07:01:55;;;;;;;19.40;9.05;;;;;;;5.99;100.00;102350.66;5044696;28;20493;-82
2023/12/18 07:04:22;;;;;;;16.38;7.93;;;;;;;6.00;100.00;102342.03;5023774;28;20095;-82
2023/12/18 07:06:49;;;;;;;15.23;8.77;;;;;;;5.97;100.00;102349.66;5033803;28;20072;-82
2023/12/18 07:09:15;;;;;;;10.30;8.15;;;;;;;6.00;100.00;102351.50;5022383;28;20053;-81
2023/12/18 07:11:42;;;;;;;14.48;8.38;;;;;;;6.02;100.00;102353.34;5050548;28;20029;-84
2023/12/18 07:14:08;;;;;;;18.10;8.73;;;;;;;5.96;100.00;102343.56;5043907;28;20490;-81
2023/12/18 07:16:35;;;;;;;13.85;9.40;;;;;;;5.96;100.00;102348.78;5020469;28;20079;-83
2023/12/18 07:19:02;;;;;;;15.65;9.80;;;;;;;5.99;100.00;102335.03;5046702;28;20037;-83
2023/12/18 07:21:28;;;;;;;12.13;8.88;;;;;;;5.96;100.00;102337.50;5043367;28;20040;-83
2023/12/18 07:23:57;;;;;;;15.50;9.65;;;;;;;6.04;100.00;102343.03;5031370;28;20656;-84
2023/12/18 07:26:24;;;;;;;12.00;8.02;;;;;;;6.02;100.00;102342.94;5028639;28;20071;-81
2023/12/18 07:28:54;;;;;;;18.83;11.05;;;;;;;6.05;100.00;102349.97;5035064;28;20379;-82
2023/12/18 07:31:21;;;;;;;14.80;9.18;;;;;;;6.09;100.00;102351.88;5031618;28;20268;-82
2023/12/18 07:33:47;;;;;;;13.15;9.05;;;;;;;6.03;100.00;102346.44;5045974;28;20118;-82
2023/12/18 07:36:14;;;;;;;17.45;10.20;;;;;;;6.02;100.00;102352.47;5029404;28;20525;-82
2023/12/18 07:38:41;;;;;;;20.05;10.60;;;;;;;5.99;100.00;102348.03;5032837;28;20052;-83
2023/12/18 07:41:07;;;;;;;12.82;8.98;;;;;;;6.08;100.00;102361.38;5049074;28;20546;-84
2023/12/18 07:43:34;;;;;;;11.93;8.70;;;;;;;6.12;100.00;102363.25;5044400;28;20057;-82
2023/12/18 07:46:00;;;;;;;13.52;8.80;;;;;;;6.10;100.00;102367.53;5027792;28;20129;-83
2023/12/18 07:48:27;;;;;;;13.05;8.23;;;;;;;6.10;100.00;102364.94;5019313;28;20414;-81
2023/12/18 07:50:55;;;;;;;16.55;10.43;;;;;;;6.07;100.00;102361.31;5031813;28;20045;-84
2023/12/18 07:53:22;;;;;;;15.60;9.88;;;;;;;6.02;100.00;102368.06;5029959;28;20890;-84
2023/12/18 07:55:49;;;;;;;20.20;10.98;;;;;;;6.04;100.00;102369.03;5043649;28;20901;-82
2023/12/18 07:58:15;;;;;;;16.73;9.73;;;;;;;6.07;100.00;102375.19;5034987;28;20067;-83
2023/12/18 08:00:42;;;;;;;14.52;10.07;;;;;;;6.05;100.00;102370.78;5029562;28;20642;-84
2023/12/18 08:03:08;;;;;;;18.27;10.65;;;;;;;6.10;100.00;102371.81;5041466;28;20571;-82
2023/12/18 08:05:35;;;;;;;14.52;9.30;;;;;;;6.12;100.00;102362.38;5040909;28;20068;-85
2023/12/18 08:08:04;;;;;;;22.60;10.60;;;;;;;6.08;100.00;102352.72;5042339;28;20053;-84
2023/12/18 08:10:30;;;;;;;15.50;9.15;;;;;;;6.08;100.00;102357.91;5039310;28;20087;-84
2023/12/18 08:12:57;;;;;;;16.05;10.18;;;;;;;6.11;100.00;102345.91;5048458;28;20057;-82
2023/12/18 08:15:23;;;;;;;14.85;10.27;;;;;;;6.18;100.00;102348.72;5029518;28;20068;-83
2023/12/18 08:17:50;;;;;;;17.02;9.88;;;;;;;6.21;100.00;102349.72;5021783;28;20052;-84
2023/12/18 08:20:16;;;;;;;14.73;9.98;;;;;;;6.13;100.00;102345.97;5047192;28;20037;-82
2023/12/18 08:22:43;;;;;;;17.35;10.13;;;;;;;6.13;100.00;102345.97;5030499;28;20060;-82
2023/12/18 08:25:10;;;;;;;16.42;10.65;;;;;;;6.10;100.00;102341.53;5026557;28;20069;-82
2023/12/18 08:27:36;;;;;;;17.90;9.85;;;;;;;6.08;100.00;102334.50;5025608;28;20049;-82
2023/12/18 08:30:08;;;;;;;16.17;10.93;;;;;;;6.07;100.00;102330.13;5044343;28;20033;-84
2023/12/18 08:32:36;;;;;;;18.10;12.70;;;;;;;6.11;100.00;102335.50;5028642;28;20057;-83
2023/12/18 08:35:08;;;;;;;14.90;9.63;;;;;;;6.12;100.00;102323.38;5026354;28;20053;-83
2023/12/18 08:37:35;;;;;;;16.42;10.95;;;;;;;6.10;100.00;102338.03;5008063;28;20119;-83
2023/12/18 08:40:03;;;;;;;17.73;10.38;;;;;;;6.08;100.00;102335.38;5033774;28;20170;-83
2023/12/18 08:42:31;;;;;;;16.83;10.25;;;;;;;6.09;100.00;102350.16;5012279;28;20045;-84
2023/12/18 08:44:57;;;;;;;15.30;10.40;;;;;;;6.11;100.00;102332.91;5025592;28;20068;-82
2023/12/18 08:47:24;;;;;;;16.90;10.65;;;;;;;6.17;100.00;102333.97;5023182;28;20068;-86
2023/12/18 08:50:00;;;;;;;16.05;9.77;;;;;;;6.17;100.00;102321.84;5011347;28;21498;-82
2023/12/18 08:52:28;;;;;;;18.80;11.65;;;;;;;6.23;100.00;102323.75;5031898;28;20591;-86
2023/12/18 08:54:54;;;;;;;18.35;11.40;;;;;;;6.19;100.00;102327.09;5052369;28;20064;-81
2023/12/18 08:57:21;;;;;;;17.42;11.57;;;;;;;6.20;100.00;102318.47;5044830;28;20052;-84
2023/12/18 08:59:50;;;;;;;18.95;10.82;;;;;;;6.20;100.00;102308.94;5015768;28;20060;-83
2023/12/18 09:02:16;;;;;;;16.75;10.10;;;;;;;6.27;100.00;102307.44;5040282;28;20041;-82
2023/12/18 09:04:43;;;;;;;15.52;9.88;;;;;;;6.30;100.00;102304.97;5043813;28;20541;-83
2023/12/18 09:07:10;;;;;;;19.15;11.00;;;;;;;6.33;100.00;102312.84;5030624;28;20049;-82
2023/12/18 09:09:39;;;;;;;21.60;13.02;;;;;;;6.28;100.00;102304.00;5035114;28;20045;-83
2023/12/18 09:12:07;;;;;;;22.65;11.18;;;;;;;6.33;100.00;102302.44;5049798;28;20556;-82
2023/12/18 09:14:34;;;;;;;21.20;11.95;;;;;;;6.30;100.00;102307.56;5027563;28;20080;-83
2023/12/18 09:17:01;;;;;;;17.65;12.10;;;;;;;6.40;100.00;102313.94;5050607;28;20045;-83
2023/12/18 09:19:29;;;;;;;25.05;11.63;;;;;;;6.30;100.00;102304.97;5033028;28;20041;-83
2023/12/18 09:21:58;;;;;;;20.13;10.98;;;;;;;6.40;100.00;102309.66;5028394;28;20090;-82
2023/12/18 09:24:25;;;;;;;18.85;11.73;;;;;;;6.31;100.00;102311.94;5028735;28;20049;-83
2023/12/18 09:26:52;;;;;;;20.88;11.00;;;;;;;6.35;100.00;102311.22;5028502;28;20037;-82
2023/12/18 09:29:19;;;;;;;17.60;11.30;;;;;;;6.37;100.00;102306.06;5037993;28;20784;-83
2023/12/18 09:31:45;;;;;;;20.85;11.23;;;;;;;6.36;100.00;102297.38;5044585;28;20115;-82
2023/12/18 09:34:13;;;;;;;14.45;10.18;;;;;;;6.37;100.00;102301.72;5033618;28;20760;-82
2023/12/18 09:36:39;;;;;;;16.92;10.50;;;;;;;6.45;100.00;102308.09;5045942;28;20049;-82
2023/12/18 09:39:06;;;;;;;14.40;10.52;;;;;;;6.44;100.00;102319.34;5029414;28;20163;-84
2023/12/18 09:41:35;;;;;;;15.75;9.05;;;;;;;6.47;100.00;102313.34;5041837;28;20049;-83
2023/12/18 09:44:02;;;;;;;15.05;8.70;;;;;;;6.49;100.00;102306.47;5026780;28;20152;-82
2023/12/18 09:46:29;;;;;;;14.55;9.57;;;;;;;6.49;100.00;102303.00;5040288;28;20036;-82
2023/12/18 09:48:56;;;;;;;14.02;8.63;;;;;;;6.50;100.00;102304.78;5032737;28;20054;-84
2023/12/18 09:51:26;;;;;;;14.10;9.18;;;;;;;6.48;100.00;102296.00;5044372;28;20044;-83
2023/12/18 09:53:54;;;;;;;19.05;8.80;;;;;;;6.50;100.00;102297.84;5047110;28;20048;-84
2023/12/18 09:56:23;;;;;;;14.05;9.80;;;;;;;6.54;100.00;102298.84;5051763;28;20769;-83
2023/12/18 09:58:50;;;;;;;12.65;8.63;;;;;;;6.51;100.00;102297.00;5032116;28;20061;-82
2023/12/18 10:01:17;;;;;;;14.38;8.75;;;;;;;6.55;100.00;102298.00;5035913;28;20091;-82
2023/12/18 10:03:44;;;;;;;12.50;8.13;;;;;;;6.54;100.00;102296.22;5036994;28;20098;-84
2023/12/18 10:06:11;;;;;;;13.18;9.43;;;;;;;6.57;100.00;102302.44;5045768;28;20060;-83
2023/12/18 10:08:37;;;;;;;14.57;9.15;;;;;;;6.56;100.00;102292.84;5035970;28;20079;-83
2023/12/18 10:11:04;;;;;;;14.00;9.52;;;;;;;6.58;100.00;102293.81;5054374;28;20041;-82
2023/12/18 10:13:31;;;;;;;14.68;8.82;;;;;;;6.60;100.00;102288.63;5037521;28;20140;-83
2023/12/18 10:16:00;;;;;;;13.40;8.38;;;;;;;6.60;100.00;102279.09;5028704;28;20049;-82
2023/12/18 10:18:28;;;;;;;14.85;9.82;;;;;;;6.64;100.00;102279.22;5044198;28;20051;-84
2023/12/18 10:20:55;;;;;;;14.90;8.75;;;;;;;6.69;100.00;102282.84;5044024;28;20057;-85
2023/12/18 10:23:21;;;;;;;12.38;8.95;;;;;;;6.60;100.00;102270.44;5046108;28;20054;-84
2023/12/18 10:25:52;;;;;;;17.17;9.60;;;;;;;6.62;100.00;102272.25;5046285;28;20060;-83
2023/12/18 10:28:19;;;;;;;17.25;9.45;;;;;;;6.68;100.00;102270.69;5032492;28;21049;-81
2023/12/18 10:30:46;;;;;;;11.90;7.35;;;;;;;6.64;100.00;102261.00;5027641;28;20073;-81
2023/12/18 10:33:13;;;;;;;9.32;7.32;;;;;;;6.62;100.00;102268.75;5050605;28;20045;-82
2023/12/18 10:35:40;;;;;;;14.65;8.95;;;;;;;6.68;100.00;102262.88;5050901;28;20383;-83
2023/12/18 10:38:07;;;;;;;11.82;8.02;;;;;;;6.72;100.00;102270.81;5037371;28;20041;-82
2023/12/18 10:40:33;;;;;;;15.80;8.70;;;;;;;6.69;100.00;102264.63;5035729;28;20068;-83
2023/12/18 10:43:05;;;;;;;11.20;7.80;;;;;;;6.76;100.00;102270.06;5046336;28;20229;-83
2023/12/18 10:45:35;;;;;;;16.33;8.98;;;;;;;6.74;100.00;102263.97;5051507;28;20113;-82
2023/12/18 10:48:04;;;;;;;16.05;8.73;;;;;;;6.83;100.00;102262.47;5035193;28;20041;-82
2023/12/18 10:50:31;;;;;;;12.65;9.18;;;;;;;6.86;100.00;102254.78;5031391;28;20041;-83
2023/12/18 10:53:00;;;;;;;13.25;8.32;;;;;;;6.81;100.00;102246.81;5043761;28;20052;-82
2023/12/18 10:55:28;;;;;;;15.77;9.57;;;;;;;6.78;100.00;102244.13;5030667;28;20059;-82
2023/12/18 10:57:59;;;;;;;13.80;9.05;;;;;;;6.86;100.00;102237.44;5037902;28;20076;-83
2023/12/18 11:00:26;;;;;;;14.85;8.18;;;;;;;6.98;100.00;102231.72;5044489;28;20048;-82
2023/12/18 11:02:56;;;;;;;13.63;8.02;;;;;;;6.98;100.00;102233.47;5039713;28;20038;-82
2023/12/18 11:05:24;;;;;;;11.20;8.70;;;;;;;6.97;100.00;102229.09;5025719;28;20038;-83
2023/12/18 11:07:52;;;;;;;13.48;7.68;;;;;;;6.95;100.00;102229.91;5030760;28;20814;-83
2023/12/18 11:10:22;;;;;;;15.20;8.07;;;;;;;6.98;100.00;102230.84;5029513;28;20133;-81
2023/12/18 11:12:55;;;;;;;13.85;7.45;;;;;;;6.93;100.00;102228.97;5034171;28;20104;-84
2023/12/18 11:15:47;;;;;;;12.73;8.18;;;;;;;6.81;100.00;102220.78;5048375;28;20041;-81
2023/12/18 11:18:55;;;;;;;13.88;7.72;;;;;;;6.85;100.00;102238.25;5011906;28;20061;-84